sensor_id;sensor_type;location;lat;lon;timestamp;P1;durP1;ratioP1;P2;durP2;ratioP2
15110;SDS011;7656;51.954;7.998;2023-07-31T00:04:01;2.40;;;2.20;;
15110;SDS011;7656;51.954;7.998;2023-07-31T00:08:22;2.43;;;2.23;;
15110;SDS011;7656;51.954;7.998;2023-07-31T00:12:44;2.40;;;2.20;;
15110;SDS011;7656;51.954;7.998;2023-07-31T00:17:06;2.63;;;2.43;;
15110;SDS011;7656;51.954;7.998;2023-07-31T00:21:27;2.20;;;2.00;;
15110;SDS011;7656;51.954;7.998;2023-07-31T00:25:48;2.43;;;2.23;;
15110;SDS011;7656;51.954;7.998;2023-07-31T00:30:09;2.40;;;2.13;;
15110;SDS011;7656;51.954;7.998;2023-07-31T00:34:31;1.60;;;1.50;;
15110;SDS011;7656;51.954;7.998;2023-07-31T00:38:52;1.73;;;1.60;;
15110;SDS011;7656;51.954;7.998;2023-07-31T00:43:13;1.70;;;1.60;;
15110;SDS011;7656;51.954;7.998;2023-07-31T00:47:35;1.23;;;1.20;;
15110;SDS011;7656;51.954;7.998;2023-07-31T00:51:56;2.43;;;1.43;;
15110;SDS011;7656;51.954;7.998;2023-07-31T00:56:19;1.60;;;1.50;;
15110;SDS011;7656;51.954;7.998;2023-07-31T01:00:40;1.47;;;1.07;;
15110;SDS011;7656;51.954;7.998;2023-07-31T01:05:02;1.20;;;1.10;;
15110;SDS011;7656;51.954;7.998;2023-07-31T01:09:37;0.83;;;0.80;;
15110;SDS011;7656;51.954;7.998;2023-07-31T01:14:05;2.60;;;1.40;;
15110;SDS011;7656;51.954;7.998;2023-07-31T01:18:26;1.80;;;1.20;;
15110;SDS011;7656;51.954;7.998;2023-07-31T01:27:32;1.30;;;1.20;;
15110;SDS011;7656;51.954;7.998;2023-07-31T01:32:02;2.90;;;1.27;;
15110;SDS011;7656;51.954;7.998;2023-07-31T01:36:25;2.03;;;1.30;;
15110;SDS011;7656;51.954;7.998;2023-07-31T01:40:46;1.43;;;1.30;;
15110;SDS011;7656;51.954;7.998;2023-07-31T01:45:13;1.93;;;1.43;;
15110;SDS011;7656;51.954;7.998;2023-07-31T01:49:34;1.40;;;1.30;;
15110;SDS011;7656;51.954;7.998;2023-07-31T01:53:55;2.87;;;1.23;;
15110;SDS011;7656;51.954;7.998;2023-07-31T01:58:16;1.60;;;1.40;;
15110;SDS011;7656;51.954;7.998;2023-07-31T02:02:37;1.73;;;1.40;;
15110;SDS011;7656;51.954;7.998;2023-07-31T02:06:58;1.30;;;1.20;;
15110;SDS011;7656;51.954;7.998;2023-07-31T02:11:19;1.30;;;1.20;;
15110;SDS011;7656;51.954;7.998;2023-07-31T02:15:40;1.23;;;1.13;;
15110;SDS011;7656;51.954;7.998;2023-07-31T02:20:01;1.03;;;1.00;;
15110;SDS011;7656;51.954;7.998;2023-07-31T02:24:23;1.37;;;1.27;;
15110;SDS011;7656;51.954;7.998;2023-07-31T02:28:45;1.30;;;1.20;;
15110;SDS011;7656;51.954;7.998;2023-07-31T02:33:06;1.50;;;1.40;;
15110;SDS011;7656;51.954;7.998;2023-07-31T02:37:27;1.93;;;1.83;;
15110;SDS011;7656;51.954;7.998;2023-07-31T02:41:50;3.27;;;2.20;;
15110;SDS011;7656;51.954;7.998;2023-07-31T02:46:11;4.63;;;2.50;;
15110;SDS011;7656;51.954;7.998;2023-07-31T02:50:32;3.17;;;2.80;;
15110;SDS011;7656;51.954;7.998;2023-07-31T02:54:53;4.10;;;3.50;;
15110;SDS011;7656;51.954;7.998;2023-07-31T02:59:14;7.77;;;4.00;;
15110;SDS011;7656;51.954;7.998;2023-07-31T03:03:35;10.13;;;4.40;;
15110;SDS011;7656;51.954;7.998;2023-07-31T03:07:56;6.63;;;4.47;;
15110;SDS011;7656;51.954;7.998;2023-07-31T03:12:18;6.60;;;4.47;;
15110;SDS011;7656;51.954;7.998;2023-07-31T03:16:40;8.60;;;5.27;;
15110;SDS011;7656;51.954;7.998;2023-07-31T03:21:01;12.23;;;5.50;;
15110;SDS011;7656;51.954;7.998;2023-07-31T03:25:22;10.10;;;5.60;;
15110;SDS011;7656;51.954;7.998;2023-07-31T03:29:45;6.83;;;4.93;;
15110;SDS011;7656;51.954;7.998;2023-07-31T03:34:06;8.63;;;5.40;;
15110;SDS011;7656;51.954;7.998;2023-07-31T03:38:27;14.57;;;5.67;;
15110;SDS011;7656;51.954;7.998;2023-07-31T03:42:48;10.03;;;5.33;;
15110;SDS011;7656;51.954;7.998;2023-07-31T03:47:09;11.10;;;5.80;;
15110;SDS011;7656;51.954;7.998;2023-07-31T03:51:32;11.30;;;5.83;;
15110;SDS011;7656;51.954;7.998;2023-07-31T03:55:53;11.17;;;5.63;;
15110;SDS011;7656;51.954;7.998;2023-07-31T04:00:14;6.77;;;5.03;;
15110;SDS011;7656;51.954;7.998;2023-07-31T04:04:35;10.53;;;5.37;;
15110;SDS011;7656;51.954;7.998;2023-07-31T04:08:56;10.30;;;4.70;;
15110;SDS011;7656;51.954;7.998;2023-07-31T04:13:17;10.47;;;4.67;;
15110;SDS011;7656;51.954;7.998;2023-07-31T04:17:38;6.27;;;4.43;;
15110;SDS011;7656;51.954;7.998;2023-07-31T04:21:59;12.83;;;4.80;;
15110;SDS011;7656;51.954;7.998;2023-07-31T04:26:20;8.83;;;4.60;;
15110;SDS011;7656;51.954;7.998;2023-07-31T04:30:42;8.97;;;4.50;;
15110;SDS011;7656;51.954;7.998;2023-07-31T04:35:04;10.53;;;4.90;;
15110;SDS011;7656;51.954;7.998;2023-07-31T04:39:25;23.67;;;4.33;;
15110;SDS011;7656;51.954;7.998;2023-07-31T04:43:46;7.50;;;4.53;;
15110;SDS011;7656;51.954;7.998;2023-07-31T04:48:07;10.63;;;4.27;;
15110;SDS011;7656;51.954;7.998;2023-07-31T04:52:28;9.30;;;4.20;;
15110;SDS011;7656;51.954;7.998;2023-07-31T04:56:49;7.13;;;3.63;;
15110;SDS011;7656;51.954;7.998;2023-07-31T05:01:10;12.17;;;4.27;;
15110;SDS011;7656;51.954;7.998;2023-07-31T05:05:31;6.20;;;3.67;;
15110;SDS011;7656;51.954;7.998;2023-07-31T05:09:53;12.00;;;4.27;;
15110;SDS011;7656;51.954;7.998;2023-07-31T05:14:14;7.90;;;3.63;;
15110;SDS011;7656;51.954;7.998;2023-07-31T05:18:36;7.47;;;3.80;;
15110;SDS011;7656;51.954;7.998;2023-07-31T05:22:57;10.50;;;3.97;;
15110;SDS011;7656;51.954;7.998;2023-07-31T05:27:18;7.20;;;3.53;;
15110;SDS011;7656;51.954;7.998;2023-07-31T05:31:39;11.53;;;3.50;;
15110;SDS011;7656;51.954;7.998;2023-07-31T05:36:00;7.57;;;3.73;;
15110;SDS011;7656;51.954;7.998;2023-07-31T05:40:21;7.77;;;3.70;;
15110;SDS011;7656;51.954;7.998;2023-07-31T05:44:42;6.77;;;3.27;;
15110;SDS011;7656;51.954;7.998;2023-07-31T05:49:04;9.50;;;4.43;;
15110;SDS011;7656;51.954;7.998;2023-07-31T05:53:25;4.93;;;3.80;;
15110;SDS011;7656;51.954;7.998;2023-07-31T05:57:46;10.50;;;4.73;;
15110;SDS011;7656;51.954;7.998;2023-07-31T06:02:07;8.63;;;3.97;;
15110;SDS011;7656;51.954;7.998;2023-07-31T06:06:28;6.90;;;4.37;;
15110;SDS011;7656;51.954;7.998;2023-07-31T06:10:49;9.83;;;3.90;;
15110;SDS011;7656;51.954;7.998;2023-07-31T06:15:10;8.63;;;3.17;;
15110;SDS011;7656;51.954;7.998;2023-07-31T06:19:31;10.53;;;3.97;;
15110;SDS011;7656;51.954;7.998;2023-07-31T06:23:53;8.37;;;3.87;;
15110;SDS011;7656;51.954;7.998;2023-07-31T06:28:14;6.20;;;3.73;;
15110;SDS011;7656;51.954;7.998;2023-07-31T06:32:35;9.83;;;3.80;;
15110;SDS011;7656;51.954;7.998;2023-07-31T06:36:56;4.57;;;3.13;;
15110;SDS011;7656;51.954;7.998;2023-07-31T06:41:17;9.13;;;3.53;;
15110;SDS011;7656;51.954;7.998;2023-07-31T06:45:38;6.53;;;3.30;;
15110;SDS011;7656;51.954;7.998;2023-07-31T06:49:59;7.97;;;3.70;;
15110;SDS011;7656;51.954;7.998;2023-07-31T06:54:20;7.00;;;3.70;;
15110;SDS011;7656;51.954;7.998;2023-07-31T06:58:41;7.90;;;4.00;;
15110;SDS011;7656;51.954;7.998;2023-07-31T07:03:03;7.10;;;3.70;;
15110;SDS011;7656;51.954;7.998;2023-07-31T07:07:24;9.63;;;4.00;;
15110;SDS011;7656;51.954;7.998;2023-07-31T07:11:46;8.50;;;3.87;;
15110;SDS011;7656;51.954;7.998;2023-07-31T07:16:07;6.90;;;3.70;;
15110;SDS011;7656;51.954;7.998;2023-07-31T07:20:28;5.80;;;4.03;;
15110;SDS011;7656;51.954;7.998;2023-07-31T07:24:49;4.80;;;3.63;;
15110;SDS011;7656;51.954;7.998;2023-07-31T07:29:10;4.63;;;3.73;;
15110;SDS011;7656;51.954;7.998;2023-07-31T07:33:31;6.03;;;4.07;;
15110;SDS011;7656;51.954;7.998;2023-07-31T07:37:52;4.80;;;3.80;;
15110;SDS011;7656;51.954;7.998;2023-07-31T07:42:14;5.73;;;3.33;;
15110;SDS011;7656;51.954;7.998;2023-07-31T07:46:35;5.27;;;3.33;;
15110;SDS011;7656;51.954;7.998;2023-07-31T07:50:56;6.53;;;3.57;;
15110;SDS011;7656;51.954;7.998;2023-07-31T07:55:17;6.33;;;3.47;;
15110;SDS011;7656;51.954;7.998;2023-07-31T07:59:38;8.87;;;3.30;;
15110;SDS011;7656;51.954;7.998;2023-07-31T08:03:59;5.03;;;3.13;;
15110;SDS011;7656;51.954;7.998;2023-07-31T08:08:20;4.43;;;3.13;;
15110;SDS011;7656;51.954;7.998;2023-07-31T08:12:41;4.53;;;3.10;;
15110;SDS011;7656;51.954;7.998;2023-07-31T08:17:02;3.70;;;3.10;;
15110;SDS011;7656;51.954;7.998;2023-07-31T08:21:23;5.17;;;3.40;;
15110;SDS011;7656;51.954;7.998;2023-07-31T08:25:45;6.10;;;3.27;;
15110;SDS011;7656;51.954;7.998;2023-07-31T08:30:07;4.97;;;3.27;;
15110;SDS011;7656;51.954;7.998;2023-07-31T08:34:28;4.50;;;3.53;;
15110;SDS011;7656;51.954;7.998;2023-07-31T08:38:49;5.00;;;3.20;;
15110;SDS011;7656;51.954;7.998;2023-07-31T08:43:10;4.20;;;3.30;;
15110;SDS011;7656;51.954;7.998;2023-07-31T08:47:31;3.90;;;3.30;;
15110;SDS011;7656;51.954;7.998;2023-07-31T08:51:53;3.67;;;2.93;;
15110;SDS011;7656;51.954;7.998;2023-07-31T08:56:15;6.67;;;3.30;;
15110;SDS011;7656;51.954;7.998;2023-07-31T09:00:37;5.47;;;3.10;;
15110;SDS011;7656;51.954;7.998;2023-07-31T09:05:00;3.13;;;2.80;;
15110;SDS011;7656;51.954;7.998;2023-07-31T09:09:23;3.73;;;3.20;;
15110;SDS011;7656;51.954;7.998;2023-07-31T09:13:44;3.30;;;2.83;;
15110;SDS011;7656;51.954;7.998;2023-07-31T09:18:07;4.37;;;3.10;;
15110;SDS011;7656;51.954;7.998;2023-07-31T09:22:32;3.33;;;2.50;;
15110;SDS011;7656;51.954;7.998;2023-07-31T09:26:55;2.00;;;1.80;;
15110;SDS011;7656;51.954;7.998;2023-07-31T09:31:40;2.50;;;2.30;;
15110;SDS011;7656;51.954;7.998;2023-07-31T09:36:04;2.40;;;2.00;;
15110;SDS011;7656;51.954;7.998;2023-07-31T09:40:26;2.63;;;2.43;;
15110;SDS011;7656;51.954;7.998;2023-07-31T09:44:48;2.93;;;2.40;;
15110;SDS011;7656;51.954;7.998;2023-07-31T09:49:12;2.40;;;2.30;;
15110;SDS011;7656;51.954;7.998;2023-07-31T09:53:34;3.70;;;1.83;;
15110;SDS011;7656;51.954;7.998;2023-07-31T09:57:55;2.13;;;1.90;;
15110;SDS011;7656;51.954;7.998;2023-07-31T10:02:21;1.63;;;1.53;;
15110;SDS011;7656;51.954;7.998;2023-07-31T10:06:43;1.90;;;1.60;;
15110;SDS011;7656;51.954;7.998;2023-07-31T10:11:05;3.67;;;1.37;;
15110;SDS011;7656;51.954;7.998;2023-07-31T10:15:29;3.50;;;1.53;;
15110;SDS011;7656;51.954;7.998;2023-07-31T10:19:52;2.63;;;1.80;;
15110;SDS011;7656;51.954;7.998;2023-07-31T10:24:14;2.20;;;1.80;;
15110;SDS011;7656;51.954;7.998;2023-07-31T10:28:36;1.60;;;1.50;;
15110;SDS011;7656;51.954;7.998;2023-07-31T10:32:59;1.60;;;1.50;;
15110;SDS011;7656;51.954;7.998;2023-07-31T10:41:57;2.93;;;1.70;;
15110;SDS011;7656;51.954;7.998;2023-07-31T10:46:18;1.70;;;1.40;;
15110;SDS011;7656;51.954;7.998;2023-07-31T10:50:54;2.43;;;1.67;;
15110;SDS011;7656;51.954;7.998;2023-07-31T10:55:29;1.80;;;1.63;;
15110;SDS011;7656;51.954;7.998;2023-07-31T10:59:52;2.57;;;1.80;;
15110;SDS011;7656;51.954;7.998;2023-07-31T11:05:05;2.00;;;1.90;;
15110;SDS011;7656;51.954;7.998;2023-07-31T11:09:30;1.93;;;1.83;;
15110;SDS011;7656;51.954;7.998;2023-07-31T11:13:53;1.80;;;1.70;;
15110;SDS011;7656;51.954;7.998;2023-07-31T11:18:15;1.80;;;1.67;;
15110;SDS011;7656;51.954;7.998;2023-07-31T11:22:37;1.87;;;1.77;;
15110;SDS011;7656;51.954;7.998;2023-07-31T11:26:58;2.37;;;1.63;;
15110;SDS011;7656;51.954;7.998;2023-07-31T11:31:20;2.40;;;1.90;;
15110;SDS011;7656;51.954;7.998;2023-07-31T11:35:46;3.47;;;1.67;;
15110;SDS011;7656;51.954;7.998;2023-07-31T11:40:09;5.17;;;3.83;;
15110;SDS011;7656;51.954;7.998;2023-07-31T11:44:40;1.97;;;1.77;;
15110;SDS011;7656;51.954;7.998;2023-07-31T11:49:08;2.20;;;2.00;;
15110;SDS011;7656;51.954;7.998;2023-07-31T11:53:50;1.70;;;1.60;;
15110;SDS011;7656;51.954;7.998;2023-07-31T11:58:16;2.10;;;1.90;;
15110;SDS011;7656;51.954;7.998;2023-07-31T12:02:39;2.00;;;1.90;;
15110;SDS011;7656;51.954;7.998;2023-07-31T12:07:01;1.83;;;1.73;;
15110;SDS011;7656;51.954;7.998;2023-07-31T12:11:22;1.90;;;1.80;;
15110;SDS011;7656;51.954;7.998;2023-07-31T12:15:43;3.07;;;2.70;;
15110;SDS011;7656;51.954;7.998;2023-07-31T12:20:05;5.17;;;3.37;;
15110;SDS011;7656;51.954;7.998;2023-07-31T12:24:27;3.83;;;3.50;;
15110;SDS011;7656;51.954;7.998;2023-07-31T12:28:49;6.60;;;3.70;;
15110;SDS011;7656;51.954;7.998;2023-07-31T12:33:14;5.23;;;4.40;;
15110;SDS011;7656;51.954;7.998;2023-07-31T12:37:36;4.33;;;3.93;;
15110;SDS011;7656;51.954;7.998;2023-07-31T12:41:57;7.50;;;6.03;;
15110;SDS011;7656;51.954;7.998;2023-07-31T12:46:18;5.40;;;4.90;;
15110;SDS011;7656;51.954;7.998;2023-07-31T12:50:39;8.13;;;4.90;;
15110;SDS011;7656;51.954;7.998;2023-07-31T12:55:00;5.70;;;5.10;;
15110;SDS011;7656;51.954;7.998;2023-07-31T12:59:21;4.47;;;4.03;;
15110;SDS011;7656;51.954;7.998;2023-07-31T13:03:42;4.63;;;3.67;;
15110;SDS011;7656;51.954;7.998;2023-07-31T13:08:03;5.10;;;3.70;;
15110;SDS011;7656;51.954;7.998;2023-07-31T13:12:24;4.00;;;3.70;;
15110;SDS011;7656;51.954;7.998;2023-07-31T13:16:45;7.03;;;3.13;;
15110;SDS011;7656;51.954;7.998;2023-07-31T13:21:06;4.73;;;3.77;;
15110;SDS011;7656;51.954;7.998;2023-07-31T13:25:27;3.63;;;3.30;;
15110;SDS011;7656;51.954;7.998;2023-07-31T13:29:48;4.17;;;3.30;;
15110;SDS011;7656;51.954;7.998;2023-07-31T13:34:09;5.07;;;4.23;;
15110;SDS011;7656;51.954;7.998;2023-07-31T13:38:30;8.50;;;4.10;;
15110;SDS011;7656;51.954;7.998;2023-07-31T13:42:51;3.90;;;3.60;;
15110;SDS011;7656;51.954;7.998;2023-07-31T13:47:13;4.20;;;3.77;;
15110;SDS011;7656;51.954;7.998;2023-07-31T13:51:34;4.10;;;3.47;;
15110;SDS011;7656;51.954;7.998;2023-07-31T13:55:55;3.50;;;3.20;;
15110;SDS011;7656;51.954;7.998;2023-07-31T14:00:17;4.20;;;3.07;;
15110;SDS011;7656;51.954;7.998;2023-07-31T14:04:38;4.30;;;3.80;;
15110;SDS011;7656;51.954;7.998;2023-07-31T14:08:59;3.60;;;3.30;;
15110;SDS011;7656;51.954;7.998;2023-07-31T14:13:20;3.77;;;3.37;;
15110;SDS011;7656;51.954;7.998;2023-07-31T14:17:41;3.60;;;3.30;;
15110;SDS011;7656;51.954;7.998;2023-07-31T14:22:02;3.83;;;3.53;;
15110;SDS011;7656;51.954;7.998;2023-07-31T14:26:23;4.40;;;4.00;;
15110;SDS011;7656;51.954;7.998;2023-07-31T14:30:44;4.77;;;4.27;;
15110;SDS011;7656;51.954;7.998;2023-07-31T14:35:05;3.78;;;3.47;;
15110;SDS011;7656;51.954;7.998;2023-07-31T14:39:27;4.23;;;3.23;;
15110;SDS011;7656;51.954;7.998;2023-07-31T14:43:48;2.83;;;2.50;;
15110;SDS011;7656;51.954;7.998;2023-07-31T14:48:09;3.83;;;3.25;;
15110;SDS011;7656;51.954;7.998;2023-07-31T14:52:30;4.50;;;3.10;;
15110;SDS011;7656;51.954;7.998;2023-07-31T14:56:51;4.90;;;3.60;;
15110;SDS011;7656;51.954;7.998;2023-07-31T15:01:12;5.45;;;3.30;;
15110;SDS011;7656;51.954;7.998;2023-07-31T15:05:33;3.53;;;3.22;;
15110;SDS011;7656;51.954;7.998;2023-07-31T15:09:54;4.70;;;3.50;;
15110;SDS011;7656;51.954;7.998;2023-07-31T15:14:15;5.07;;;3.23;;
15110;SDS011;7656;51.954;7.998;2023-07-31T15:18:36;4.32;;;3.90;;
15110;SDS011;7656;51.954;7.998;2023-07-31T15:22:57;5.43;;;3.90;;
15110;SDS011;7656;51.954;7.998;2023-07-31T15:27:18;5.83;;;3.90;;
15110;SDS011;7656;51.954;7.998;2023-07-31T15:31:40;3.33;;;3.07;;
15110;SDS011;7656;51.954;7.998;2023-07-31T15:36:02;3.10;;;2.80;;
15110;SDS011;7656;51.954;7.998;2023-07-31T15:40:23;3.90;;;2.80;;
15110;SDS011;7656;51.954;7.998;2023-07-31T15:44:44;2.77;;;2.57;;
15110;SDS011;7656;51.954;7.998;2023-07-31T15:49:05;3.47;;;3.17;;
15110;SDS011;7656;51.954;7.998;2023-07-31T15:53:26;3.03;;;2.80;;
15110;SDS011;7656;51.954;7.998;2023-07-31T15:57:47;3.05;;;2.75;;
15110;SDS011;7656;51.954;7.998;2023-07-31T16:02:08;4.27;;;3.17;;
15110;SDS011;7656;51.954;7.998;2023-07-31T16:06:33;3.78;;;2.58;;
15110;SDS011;7656;51.954;7.998;2023-07-31T16:10:54;3.80;;;2.95;;
15110;SDS011;7656;51.954;7.998;2023-07-31T16:15:16;3.70;;;2.37;;
15110;SDS011;7656;51.954;7.998;2023-07-31T16:19:37;2.60;;;2.40;;
15110;SDS011;7656;51.954;7.998;2023-07-31T16:23:59;3.83;;;2.40;;
15110;SDS011;7656;51.954;7.998;2023-07-31T16:28:20;3.63;;;2.43;;
15110;SDS011;7656;51.954;7.998;2023-07-31T16:32:41;3.37;;;2.40;;
15110;SDS011;7656;51.954;7.998;2023-07-31T16:37:02;3.73;;;2.40;;
15110;SDS011;7656;51.954;7.998;2023-07-31T16:41:24;4.17;;;2.70;;
15110;SDS011;7656;51.954;7.998;2023-07-31T16:45:45;3.47;;;2.47;;
15110;SDS011;7656;51.954;7.998;2023-07-31T16:50:06;3.63;;;2.70;;
15110;SDS011;7656;51.954;7.998;2023-07-31T16:54:28;4.27;;;2.90;;
15110;SDS011;7656;51.954;7.998;2023-07-31T16:58:49;4.90;;;3.43;;
15110;SDS011;7656;51.954;7.998;2023-07-31T17:03:10;4.03;;;3.03;;
15110;SDS011;7656;51.954;7.998;2023-07-31T17:07:31;5.77;;;3.33;;
15110;SDS011;7656;51.954;7.998;2023-07-31T17:11:53;5.07;;;3.53;;
15110;SDS011;7656;51.954;7.998;2023-07-31T17:16:15;3.63;;;3.07;;
15110;SDS011;7656;51.954;7.998;2023-07-31T17:20:38;4.20;;;3.50;;
15110;SDS011;7656;51.954;7.998;2023-07-31T17:24:59;4.73;;;3.50;;
15110;SDS011;7656;51.954;7.998;2023-07-31T17:29:20;4.00;;;3.50;;
15110;SDS011;7656;51.954;7.998;2023-07-31T17:33:49;4.40;;;3.27;;
15110;SDS011;7656;51.954;7.998;2023-07-31T17:38:10;4.60;;;3.60;;
15110;SDS011;7656;51.954;7.998;2023-07-31T17:42:31;3.17;;;2.87;;
15110;SDS011;7656;51.954;7.998;2023-07-31T17:46:52;4.17;;;3.07;;
15110;SDS011;7656;51.954;7.998;2023-07-31T17:51:13;4.03;;;2.70;;
15110;SDS011;7656;51.954;7.998;2023-07-31T17:55:34;3.63;;;2.33;;
15110;SDS011;7656;51.954;7.998;2023-07-31T17:59:55;2.83;;;2.60;;
15110;SDS011;7656;51.954;7.998;2023-07-31T18:04:16;6.63;;;2.53;;
15110;SDS011;7656;51.954;7.998;2023-07-31T18:08:37;4.77;;;2.60;;
15110;SDS011;7656;51.954;7.998;2023-07-31T18:12:59;2.60;;;2.30;;
15110;SDS011;7656;51.954;7.998;2023-07-31T18:17:20;4.50;;;2.97;;
15110;SDS011;7656;51.954;7.998;2023-07-31T18:21:41;3.43;;;2.60;;
15110;SDS011;7656;51.954;7.998;2023-07-31T18:26:02;4.87;;;2.90;;
15110;SDS011;7656;51.954;7.998;2023-07-31T18:30:23;3.57;;;2.97;;
15110;SDS011;7656;51.954;7.998;2023-07-31T18:34:44;2.70;;;2.50;;
15110;SDS011;7656;51.954;7.998;2023-07-31T18:39:05;4.63;;;2.57;;
15110;SDS011;7656;51.954;7.998;2023-07-31T18:43:27;3.00;;;2.60;;
15110;SDS011;7656;51.954;7.998;2023-07-31T18:47:48;2.23;;;2.03;;
15110;SDS011;7656;51.954;7.998;2023-07-31T18:52:09;5.43;;;2.70;;
15110;SDS011;7656;51.954;7.998;2023-07-31T18:56:30;3.50;;;2.60;;
15110;SDS011;7656;51.954;7.998;2023-07-31T19:00:51;3.90;;;2.63;;
15110;SDS011;7656;51.954;7.998;2023-07-31T19:05:12;3.80;;;2.20;;
15110;SDS011;7656;51.954;7.998;2023-07-31T19:09:33;3.67;;;2.60;;
15110;SDS011;7656;51.954;7.998;2023-07-31T19:13:56;2.97;;;2.60;;
15110;SDS011;7656;51.954;7.998;2023-07-31T19:18:19;2.77;;;2.30;;
15110;SDS011;7656;51.954;7.998;2023-07-31T19:22:40;4.33;;;2.70;;
15110;SDS011;7656;51.954;7.998;2023-07-31T19:27:02;4.53;;;2.60;;
15110;SDS011;7656;51.954;7.998;2023-07-31T19:31:24;2.37;;;1.93;;
15110;SDS011;7656;51.954;7.998;2023-07-31T19:35:56;2.33;;;2.13;;
15110;SDS011;7656;51.954;7.998;2023-07-31T19:40:19;2.17;;;1.77;;
15110;SDS011;7656;51.954;7.998;2023-07-31T19:44:41;2.77;;;2.03;;
15110;SDS011;7656;51.954;7.998;2023-07-31T19:49:02;2.07;;;1.87;;
15110;SDS011;7656;51.954;7.998;2023-07-31T19:53:25;2.93;;;1.80;;
15110;SDS011;7656;51.954;7.998;2023-07-31T19:57:46;2.00;;;1.80;;
15110;SDS011;7656;51.954;7.998;2023-07-31T20:02:07;1.90;;;1.60;;
15110;SDS011;7656;51.954;7.998;2023-07-31T20:06:29;2.23;;;1.53;;
15110;SDS011;7656;51.954;7.998;2023-07-31T20:10:50;2.93;;;1.70;;
15110;SDS011;7656;51.954;7.998;2023-07-31T20:15:18;2.10;;;1.80;;
15110;SDS011;7656;51.954;7.998;2023-07-31T20:19:41;2.00;;;1.60;;
15110;SDS011;7656;51.954;7.998;2023-07-31T20:24:02;2.57;;;1.70;;
15110;SDS011;7656;51.954;7.998;2023-07-31T20:28:24;1.80;;;1.70;;
15110;SDS011;7656;51.954;7.998;2023-07-31T20:32:45;1.77;;;1.53;;
15110;SDS011;7656;51.954;7.998;2023-07-31T20:37:06;3.90;;;1.20;;
15110;SDS011;7656;51.954;7.998;2023-07-31T20:41:27;1.70;;;1.60;;
15110;SDS011;7656;51.954;7.998;2023-07-31T20:45:48;2.60;;;1.73;;
15110;SDS011;7656;51.954;7.998;2023-07-31T20:50:09;2.67;;;1.40;;
15110;SDS011;7656;51.954;7.998;2023-07-31T20:54:30;2.13;;;1.50;;
15110;SDS011;7656;51.954;7.998;2023-07-31T20:58:51;1.63;;;1.53;;
15110;SDS011;7656;51.954;7.998;2023-07-31T21:03:12;1.50;;;1.40;;
15110;SDS011;7656;51.954;7.998;2023-07-31T21:07:34;1.70;;;1.60;;
15110;SDS011;7656;51.954;7.998;2023-07-31T21:11:55;1.57;;;1.47;;
15110;SDS011;7656;51.954;7.998;2023-07-31T21:16:16;5.70;;;1.87;;
15110;SDS011;7656;51.954;7.998;2023-07-31T21:20:37;2.70;;;1.73;;
15110;SDS011;7656;51.954;7.998;2023-07-31T21:24:58;1.70;;;1.60;;
15110;SDS011;7656;51.954;7.998;2023-07-31T21:29:19;2.03;;;1.80;;
15110;SDS011;7656;51.954;7.998;2023-07-31T21:33:43;2.77;;;1.77;;
15110;SDS011;7656;51.954;7.998;2023-07-31T21:38:04;1.80;;;1.70;;
15110;SDS011;7656;51.954;7.998;2023-07-31T21:42:25;3.53;;;1.53;;
15110;SDS011;7656;51.954;7.998;2023-07-31T21:46:46;1.87;;;1.67;;
15110;SDS011;7656;51.954;7.998;2023-07-31T21:51:07;1.33;;;1.30;;
15110;SDS011;7656;51.954;7.998;2023-07-31T21:55:28;1.97;;;1.37;;
15110;SDS011;7656;51.954;7.998;2023-07-31T21:59:49;1.53;;;1.43;;
15110;SDS011;7656;51.954;7.998;2023-07-31T22:04:10;1.33;;;1.00;;
15110;SDS011;7656;51.954;7.998;2023-07-31T22:08:31;1.13;;;1.13;;
15110;SDS011;7656;51.954;7.998;2023-07-31T22:12:52;0.83;;;0.83;;
15110;SDS011;7656;51.954;7.998;2023-07-31T22:17:13;1.00;;;0.93;;
15110;SDS011;7656;51.954;7.998;2023-07-31T22:21:35;0.90;;;0.90;;
15110;SDS011;7656;51.954;7.998;2023-07-31T22:25:57;1.00;;;0.90;;
15110;SDS011;7656;51.954;7.998;2023-07-31T22:30:18;2.67;;;1.10;;
15110;SDS011;7656;51.954;7.998;2023-07-31T22:34:39;0.80;;;0.70;;
15110;SDS011;7656;51.954;7.998;2023-07-31T22:39:00;0.80;;;0.80;;
15110;SDS011;7656;51.954;7.998;2023-07-31T22:43:21;1.30;;;1.20;;
15110;SDS011;7656;51.954;7.998;2023-07-31T22:47:42;4.40;;;1.70;;
15110;SDS011;7656;51.954;7.998;2023-07-31T22:52:03;1.30;;;1.20;;
15110;SDS011;7656;51.954;7.998;2023-07-31T22:56:25;1.60;;;1.50;;
15110;SDS011;7656;51.954;7.998;2023-07-31T23:00:46;3.27;;;1.30;;
15110;SDS011;7656;51.954;7.998;2023-07-31T23:05:07;2.23;;;1.27;;
15110;SDS011;7656;51.954;7.998;2023-07-31T23:09:28;2.00;;;1.20;;
15110;SDS011;7656;51.954;7.998;2023-07-31T23:13:49;1.20;;;1.10;;
15110;SDS011;7656;51.954;7.998;2023-07-31T23:18:11;0.80;;;0.80;;
15110;SDS011;7656;51.954;7.998;2023-07-31T23:22:35;1.40;;;1.30;;
15110;SDS011;7656;51.954;7.998;2023-07-31T23:26:58;1.10;;;1.10;;
15110;SDS011;7656;51.954;7.998;2023-07-31T23:31:19;1.37;;;1.17;;
15110;SDS011;7656;51.954;7.998;2023-07-31T23:35:40;1.40;;;1.30;;
15110;SDS011;7656;51.954;7.998;2023-07-31T23:40:01;1.07;;;1.07;;
15110;SDS011;7656;51.954;7.998;2023-07-31T23:44:22;1.00;;;1.00;;
15110;SDS011;7656;51.954;7.998;2023-07-31T23:48:44;1.27;;;1.17;;
15110;SDS011;7656;51.954;7.998;2023-07-31T23:53:05;1.23;;;1.13;;
15110;SDS011;7656;51.954;7.998;2023-07-31T23:57:26;2.03;;;1.30;;
